Dickinson Theodore Roosevelt Regional Airport
KDIK : now visible

Airfield :











YOU CAN JOIN US ON...

 
LOGIN :

Register | Disclaimer

   EN    FR    IT 

 









Legend :    VFR   Marginal VFR   IFR   Intensive IFR   Very Intensive IFR
Visi :
Ceiling :
>= 8 km
>= 3000ft
5 to 8 km
1000 to 3000 ft
1500m to 5 km
500 to 1000 ft
800 to 1500m
200 to 500 ft
< 800m
< 200 ft
Symbols :   Thunderstorms  Fog  Heavy snow  Heavy precipitations  Wind > 20 kt






- Airport Elevation : 2592 ft


KDIK - Dickinson Theodore Roosevelt Regional

CURRENT METAR :
  • 121756Z AUTO 18017G25KT 10SM SCT075 OVC100 17/M01 A3016 RMK AO2 SLP214 60001 T01721011 10178 20078 58012

EXPIRED METARs :
  • 121656Z AUTO 15012KT 10SM OVC090 16/01 A3018 RMK AO2 SLP224 T01560011
  • 121556Z AUTO 15009KT 10SM OVC080 14/02 A3019 RMK AO2 SLP227 T01390017

TAF KDIK
Valid from the 12 at 18:00 until the 13 at 18:00 UTC


121720Z 1218/1318 17012KT P6SM SCT060 BKN100
FM122200 18013KT P6SM VCTS SCT080CB BKN090
FM130000 21012G20KT P6SM VCSH SCT060 OVC080
FM130200 19008KT P6SM SCT040 OVC100
KZMP FIR / North America



MET'MAP, your aeronautical weather chart ! - Copyright ORBIFLY December 2007 - Disclaimer

ORBIFLY MET'MAP TEAM :

Programming & Development : Alexandra Zaïnal
Concept & original design : Baudouin d'Aumeries
Assistance for programming : Marc-Olivier Méhu
Technical & hardware support : Manuel Goepfert

Contact : metmap@orbifly.com




SOURCES & CREDITS :

   NOAA       Earth
Advisory